sensor_id;sensor_type;location;lat;lon;timestamp;temperature;humidity
16801;DHT22;8518;53.236;10.384;2023-12-28T00:02:36;7.70;99.90
16801;DHT22;8518;53.236;10.384;2023-12-28T00:08:04;7.90;99.90
16801;DHT22;8518;53.236;10.384;2023-12-28T00:10:30;7.90;99.90
16801;DHT22;8518;53.236;10.384;2023-12-28T00:13:04;8.30;99.90
16801;DHT22;8518;53.236;10.384;2023-12-28T00:15:30;7.90;99.90
16801;DHT22;8518;53.236;10.384;2023-12-28T00:21:00;7.80;99.90
16801;DHT22;8518;53.236;10.384;2023-12-28T00:23:26;7.80;99.90
16801;DHT22;8518;53.236;10.384;2023-12-28T00:25:51;7.90;99.90
16801;DHT22;8518;53.236;10.384;2023-12-28T00:31:20;8.00;99.90
16801;DHT22;8518;53.236;10.384;2023-12-28T00:33:49;7.50;99.90
16801;DHT22;8518;53.236;10.384;2023-12-28T00:36:18;8.00;99.90
16801;DHT22;8518;53.236;10.384;2023-12-28T00:41:54;8.10;99.90
16801;DHT22;8518;53.236;10.384;2023-12-28T00:44:19;8.20;99.90
16801;DHT22;8518;53.236;10.384;2023-12-28T00:46:45;8.20;99.90
16801;DHT22;8518;53.236;10.384;2023-12-28T00:52:13;8.30;99.90
16801;DHT22;8518;53.236;10.384;2023-12-28T00:54:39;8.10;99.90
16801;DHT22;8518;53.236;10.384;2023-12-28T00:57:07;9.20;99.90
16801;DHT22;8518;53.236;10.384;2023-12-28T01:02:36;8.20;99.90
16801;DHT22;8518;53.236;10.384;2023-12-28T01:08:07;7.90;99.90
16801;DHT22;8518;53.236;10.384;2023-12-28T01:10:33;7.70;99.90
16801;DHT22;8518;53.236;10.384;2023-12-28T01:12:58;8.20;99.90
16801;DHT22;8518;53.236;10.384;2023-12-28T01:15:24;7.50;99.90
16801;DHT22;8518;53.236;10.384;2023-12-28T01:20:52;7.50;99.90
16801;DHT22;8518;53.236;10.384;2023-12-28T01:23:18;7.40;99.90
16801;DHT22;8518;53.236;10.384;2023-12-28T01:25:44;8.80;99.90
16801;DHT22;8518;53.236;10.384;2023-12-28T01:31:13;7.30;99.90
16801;DHT22;8518;53.236;10.384;2023-12-28T01:33:40;7.40;99.90
16801;DHT22;8518;53.236;10.384;2023-12-28T01:36:18;7.40;99.90
16801;DHT22;8518;53.236;10.384;2023-12-28T01:41:59;7.40;99.90
16801;DHT22;8518;53.236;10.384;2023-12-28T01:44:31;7.50;99.90
16801;DHT22;8518;53.236;10.384;2023-12-28T01:46:56;7.90;99.90
16801;DHT22;8518;53.236;10.384;2023-12-28T01:52:24;7.40;99.90
16801;DHT22;8518;53.236;10.384;2023-12-28T01:54:53;7.50;99.90
16801;DHT22;8518;53.236;10.384;2023-12-28T01:57:19;7.50;99.90
16801;DHT22;8518;53.236;10.384;2023-12-28T01:59:45;8.90;99.90
16801;DHT22;8518;53.236;10.384;2023-12-28T02:02:16;7.50;99.90
16801;DHT22;8518;53.236;10.384;2023-12-28T02:04:42;7.50;99.90
16801;DHT22;8518;53.236;10.384;2023-12-28T02:07:09;7.30;99.90
16801;DHT22;8518;53.236;10.384;2023-12-28T02:12:39;7.60;99.90
16801;DHT22;8518;53.236;10.384;2023-12-28T02:15:06;9.70;99.90
16801;DHT22;8518;53.236;10.384;2023-12-28T02:19:57;7.70;99.90
16801;DHT22;8518;53.236;10.384;2023-12-28T02:22:24;8.00;99.90
16801;DHT22;8518;53.236;10.384;2023-12-28T02:24:54;7.70;99.90
16801;DHT22;8518;53.236;10.384;2023-12-28T02:27:19;7.80;99.90
16801;DHT22;8518;53.236;10.384;2023-12-28T02:37:52;7.90;99.90
16801;DHT22;8518;53.236;10.384;2023-12-28T02:40:18;8.00;99.90
16801;DHT22;8518;53.236;10.384;2023-12-28T02:42:43;8.00;99.90
16801;DHT22;8518;53.236;10.384;2023-12-28T02:45:09;8.10;99.90
16801;DHT22;8518;53.236;10.384;2023-12-28T02:47:34;8.10;99.90
16801;DHT22;8518;53.236;10.384;2023-12-28T02:50:00;8.10;99.90
16801;DHT22;8518;53.236;10.384;2023-12-28T02:52:25;8.00;99.90
16801;DHT22;8518;53.236;10.384;2023-12-28T02:54:51;8.20;99.90
16801;DHT22;8518;53.236;10.384;2023-12-28T02:57:16;7.60;99.90
16801;DHT22;8518;53.236;10.384;2023-12-28T03:02:47;8.30;99.90
16801;DHT22;8518;53.236;10.384;2023-12-28T03:05:16;8.30;99.90
16801;DHT22;8518;53.236;10.384;2023-12-28T03:10:45;8.30;99.90
16801;DHT22;8518;53.236;10.384;2023-12-28T03:16:14;8.40;99.90
16801;DHT22;8518;53.236;10.384;2023-12-28T03:21:43;8.40;99.90
16801;DHT22;8518;53.236;10.384;2023-12-28T03:27:11;8.40;99.90
16801;DHT22;8518;53.236;10.384;2023-12-28T03:32:40;9.10;99.90
16801;DHT22;8518;53.236;10.384;2023-12-28T03:35:05;8.40;99.90
16801;DHT22;8518;53.236;10.384;2023-12-28T03:37:32;8.50;99.90
16801;DHT22;8518;53.236;10.384;2023-12-28T03:39:57;8.50;99.90
16801;DHT22;8518;53.236;10.384;2023-12-28T03:42:25;8.50;99.90
16801;DHT22;8518;53.236;10.384;2023-12-28T03:44:51;8.50;99.90
16801;DHT22;8518;53.236;10.384;2023-12-28T03:47:16;8.50;99.90
16801;DHT22;8518;53.236;10.384;2023-12-28T03:52:45;8.50;99.90
16801;DHT22;8518;53.236;10.384;2023-12-28T03:55:19;8.50;99.90
16801;DHT22;8518;53.236;10.384;2023-12-28T04:00:48;8.50;99.90
16801;DHT22;8518;53.236;10.384;2023-12-28T04:03:13;8.60;99.90
16801;DHT22;8518;53.236;10.384;2023-12-28T04:05:39;8.50;99.90
16801;DHT22;8518;53.236;10.384;2023-12-28T04:11:08;8.60;99.90
16801;DHT22;8518;53.236;10.384;2023-12-28T04:13:33;8.50;99.90
16801;DHT22;8518;53.236;10.384;2023-12-28T04:19:02;8.50;99.90
16801;DHT22;8518;53.236;10.384;2023-12-28T04:21:30;8.60;99.90
16801;DHT22;8518;53.236;10.384;2023-12-28T04:23:59;8.50;99.90
16801;DHT22;8518;53.236;10.384;2023-12-28T04:26:25;8.50;99.90
16801;DHT22;8518;53.236;10.384;2023-12-28T04:31:54;8.50;99.90
16801;DHT22;8518;53.236;10.384;2023-12-28T04:34:20;8.50;99.90
16801;DHT22;8518;53.236;10.384;2023-12-28T04:36:52;8.30;99.90
16801;DHT22;8518;53.236;10.384;2023-12-28T04:42:20;8.50;99.90
16801;DHT22;8518;53.236;10.384;2023-12-28T04:47:49;8.50;99.90
16801;DHT22;8518;53.236;10.384;2023-12-28T04:50:14;8.50;99.90
16801;DHT22;8518;53.236;10.384;2023-12-28T04:52:40;8.50;99.90
16801;DHT22;8518;53.236;10.384;2023-12-28T04:55:09;8.40;99.90
16801;DHT22;8518;53.236;10.384;2023-12-28T04:57:34;8.40;99.90
16801;DHT22;8518;53.236;10.384;2023-12-28T04:59:59;8.40;99.90
16801;DHT22;8518;53.236;10.384;2023-12-28T05:02:25;8.30;99.90
16801;DHT22;8518;53.236;10.384;2023-12-28T05:04:50;8.40;99.90
16801;DHT22;8518;53.236;10.384;2023-12-28T05:07:16;8.40;99.90
16801;DHT22;8518;53.236;10.384;2023-12-28T05:12:46;8.50;99.90
16801;DHT22;8518;53.236;10.384;2023-12-28T05:15:12;8.50;99.90
16801;DHT22;8518;53.236;10.384;2023-12-28T05:20:41;8.50;99.90
16801;DHT22;8518;53.236;10.384;2023-12-28T05:23:06;8.50;99.90
16801;DHT22;8518;53.236;10.384;2023-12-28T05:25:38;8.50;99.90
16801;DHT22;8518;53.236;10.384;2023-12-28T05:31:13;8.50;99.90
16801;DHT22;8518;53.236;10.384;2023-12-28T05:33:44;8.50;99.90
16801;DHT22;8518;53.236;10.384;2023-12-28T05:36:10;8.60;99.90
16801;DHT22;8518;53.236;10.384;2023-12-28T05:38:35;8.60;99.90
16801;DHT22;8518;53.236;10.384;2023-12-28T05:41:02;8.50;99.90
16801;DHT22;8518;53.236;10.384;2023-12-28T05:43:27;8.60;99.90
16801;DHT22;8518;53.236;10.384;2023-12-28T05:45:56;8.60;99.90
16801;DHT22;8518;53.236;10.384;2023-12-28T05:51:24;8.60;99.90
16801;DHT22;8518;53.236;10.384;2023-12-28T05:53:50;8.70;99.90
16801;DHT22;8518;53.236;10.384;2023-12-28T05:56:18;8.70;99.90
16801;DHT22;8518;53.236;10.384;2023-12-28T06:01:47;9.30;99.90
16801;DHT22;8518;53.236;10.384;2023-12-28T06:04:12;9.00;99.90
16801;DHT22;8518;53.236;10.384;2023-12-28T06:06:38;9.20;99.90
16801;DHT22;8518;53.236;10.384;2023-12-28T06:12:07;9.00;99.90
16801;DHT22;8518;53.236;10.384;2023-12-28T06:14:35;9.10;99.90
16801;DHT22;8518;53.236;10.384;2023-12-28T06:17:01;9.20;99.90
16801;DHT22;8518;53.236;10.384;2023-12-28T06:22:30;9.00;99.90
16801;DHT22;8518;53.236;10.384;2023-12-28T06:24:56;9.00;99.90
16801;DHT22;8518;53.236;10.384;2023-12-28T06:27:22;9.10;99.90
16801;DHT22;8518;53.236;10.384;2023-12-28T06:29:49;9.10;99.90
16801;DHT22;8518;53.236;10.384;2023-12-28T06:32:14;9.20;99.90
16801;DHT22;8518;53.236;10.384;2023-12-28T06:34:43;9.10;99.90
16801;DHT22;8518;53.236;10.384;2023-12-28T06:37:09;9.30;99.90
16801;DHT22;8518;53.236;10.384;2023-12-28T06:39:35;9.00;99.90
16801;DHT22;8518;53.236;10.384;2023-12-28T06:42:03;9.00;99.90
16801;DHT22;8518;53.236;10.384;2023-12-28T06:44:29;9.10;99.90
16801;DHT22;8518;53.236;10.384;2023-12-28T06:46:54;9.10;99.90
16801;DHT22;8518;53.236;10.384;2023-12-28T06:52:23;9.10;99.90
16801;DHT22;8518;53.236;10.384;2023-12-28T06:54:52;9.00;99.90
16801;DHT22;8518;53.236;10.384;2023-12-28T06:57:18;9.10;99.90
16801;DHT22;8518;53.236;10.384;2023-12-28T07:02:47;9.10;99.90
16801;DHT22;8518;53.236;10.384;2023-12-28T07:08:17;9.10;99.90
16801;DHT22;8518;53.236;10.384;2023-12-28T07:10:45;9.10;99.90
16801;DHT22;8518;53.236;10.384;2023-12-28T07:13:11;9.10;99.90
16801;DHT22;8518;53.236;10.384;2023-12-28T07:15:36;9.20;99.90
16801;DHT22;8518;53.236;10.384;2023-12-28T07:21:05;9.20;99.90
16801;DHT22;8518;53.236;10.384;2023-12-28T07:23:39;9.30;99.90
16801;DHT22;8518;53.236;10.384;2023-12-28T07:26:08;9.40;99.90
16801;DHT22;8518;53.236;10.384;2023-12-28T07:31:36;9.50;99.90
16801;DHT22;8518;53.236;10.384;2023-12-28T07:37:05;9.50;99.90
16801;DHT22;8518;53.236;10.384;2023-12-28T07:39:31;10.70;99.90
16801;DHT22;8518;53.236;10.384;2023-12-28T07:41:56;10.10;99.90
16801;DHT22;8518;53.236;10.384;2023-12-28T07:44:25;9.50;99.90
16801;DHT22;8518;53.236;10.384;2023-12-28T07:46:52;9.30;99.90
16801;DHT22;8518;53.236;10.384;2023-12-28T07:52:21;10.10;99.90
16801;DHT22;8518;53.236;10.384;2023-12-28T07:54:47;9.60;99.90
16801;DHT22;8518;53.236;10.384;2023-12-28T07:57:19;9.20;99.90
16801;DHT22;8518;53.236;10.384;2023-12-28T07:59:44;9.50;99.90
16801;DHT22;8518;53.236;10.384;2023-12-28T08:02:10;10.50;99.90
16801;DHT22;8518;53.236;10.384;2023-12-28T08:04:35;9.50;99.90
16801;DHT22;8518;53.236;10.384;2023-12-28T08:07:01;9.50;99.90
16801;DHT22;8518;53.236;10.384;2023-12-28T08:12:35;9.60;99.90
16801;DHT22;8518;53.236;10.384;2023-12-28T08:15:01;9.60;99.90
16801;DHT22;8518;53.236;10.384;2023-12-28T08:17:26;10.10;99.90
16801;DHT22;8518;53.236;10.384;2023-12-28T08:19:52;9.70;99.90
16801;DHT22;8518;53.236;10.384;2023-12-28T08:22:17;9.70;99.90
16801;DHT22;8518;53.236;10.384;2023-12-28T08:24:44;9.70;99.90
16801;DHT22;8518;53.236;10.384;2023-12-28T08:27:11;9.70;99.90
16801;DHT22;8518;53.236;10.384;2023-12-28T08:32:40;9.80;99.90
16801;DHT22;8518;53.236;10.384;2023-12-28T08:38:09;10.00;99.90
16801;DHT22;8518;53.236;10.384;2023-12-28T08:40:34;11.10;99.90
16801;DHT22;8518;53.236;10.384;2023-12-28T08:43:00;9.70;99.90
16801;DHT22;8518;53.236;10.384;2023-12-28T08:45:28;10.10;99.90
16801;DHT22;8518;53.236;10.384;2023-12-28T08:51:00;10.20;99.90
16801;DHT22;8518;53.236;10.384;2023-12-28T08:53:25;10.20;99.90
16801;DHT22;8518;53.236;10.384;2023-12-28T08:55:50;10.20;99.90
16801;DHT22;8518;53.236;10.384;2023-12-28T09:01:20;10.30;99.90
16801;DHT22;8518;53.236;10.384;2023-12-28T09:03:49;10.30;99.90
16801;DHT22;8518;53.236;10.384;2023-12-28T09:06:18;10.30;99.90
16801;DHT22;8518;53.236;10.384;2023-12-28T09:11:47;10.50;99.90
16801;DHT22;8518;53.236;10.384;2023-12-28T09:14:13;10.90;99.90
16801;DHT22;8518;53.236;10.384;2023-12-28T09:16:38;11.20;99.90
16801;DHT22;8518;53.236;10.384;2023-12-28T09:22:10;10.90;99.90
16801;DHT22;8518;53.236;10.384;2023-12-28T09:24:36;10.80;99.90
16801;DHT22;8518;53.236;10.384;2023-12-28T09:27:04;12.50;99.90
16801;DHT22;8518;53.236;10.384;2023-12-28T09:32:32;9.90;99.90
16801;DHT22;8518;53.236;10.384;2023-12-28T09:34:58;10.70;99.90
16801;DHT22;8518;53.236;10.384;2023-12-28T09:37:23;12.00;99.90
16801;DHT22;8518;53.236;10.384;2023-12-28T09:39:49;12.10;99.90
16801;DHT22;8518;53.236;10.384;2023-12-28T09:42:25;13.30;99.90
16801;DHT22;8518;53.236;10.384;2023-12-28T09:45:00;12.30;99.90
16801;DHT22;8518;53.236;10.384;2023-12-28T09:47:29;13.20;99.90
16801;DHT22;8518;53.236;10.384;2023-12-28T09:50:01;11.80;99.90
16801;DHT22;8518;53.236;10.384;2023-12-28T09:52:29;12.20;99.90
16801;DHT22;8518;53.236;10.384;2023-12-28T09:54:55;12.90;99.90
16801;DHT22;8518;53.236;10.384;2023-12-28T09:57:21;12.50;99.90
16801;DHT22;8518;53.236;10.384;2023-12-28T09:59:46;12.20;99.90
16801;DHT22;8518;53.236;10.384;2023-12-28T10:02:12;12.00;99.90
16801;DHT22;8518;53.236;10.384;2023-12-28T10:04:37;11.50;99.90
16801;DHT22;8518;53.236;10.384;2023-12-28T10:07:06;11.60;99.90
16801;DHT22;8518;53.236;10.384;2023-12-28T10:12:35;11.40;99.90
16801;DHT22;8518;53.236;10.384;2023-12-28T10:15:01;11.30;99.90
16801;DHT22;8518;53.236;10.384;2023-12-28T10:17:27;12.00;99.90
16801;DHT22;8518;53.236;10.384;2023-12-28T10:19:53;11.50;99.90
16801;DHT22;8518;53.236;10.384;2023-12-28T10:22:18;11.40;99.90
16801;DHT22;8518;53.236;10.384;2023-12-28T10:24:44;12.00;99.90
16801;DHT22;8518;53.236;10.384;2023-12-28T10:27:09;12.60;99.90
16801;DHT22;8518;53.236;10.384;2023-12-28T10:32:41;13.20;99.90
16801;DHT22;8518;53.236;10.384;2023-12-28T10:35:07;13.10;99.90
16801;DHT22;8518;53.236;10.384;2023-12-28T10:37:33;12.50;99.90
16801;DHT22;8518;53.236;10.384;2023-12-28T10:40:00;12.10;99.90
16801;DHT22;8518;53.236;10.384;2023-12-28T10:42:33;12.00;99.90
16801;DHT22;8518;53.236;10.384;2023-12-28T10:45:03;11.80;99.90
16801;DHT22;8518;53.236;10.384;2023-12-28T10:47:34;11.30;99.90
16801;DHT22;8518;53.236;10.384;2023-12-28T10:50:04;11.50;99.90
16801;DHT22;8518;53.236;10.384;2023-12-28T10:52:31;11.70;99.90
16801;DHT22;8518;53.236;10.384;2023-12-28T10:57:28;11.60;99.90
16801;DHT22;8518;53.236;10.384;2023-12-28T11:00:00;11.50;99.90
16801;DHT22;8518;53.236;10.384;2023-12-28T11:02:29;11.50;99.90
16801;DHT22;8518;53.236;10.384;2023-12-28T11:04:57;11.50;99.90
16801;DHT22;8518;53.236;10.384;2023-12-28T11:07:23;11.50;99.90
16801;DHT22;8518;53.236;10.384;2023-12-28T11:09:49;11.40;99.90
16801;DHT22;8518;53.236;10.384;2023-12-28T11:12:15;11.40;99.90
16801;DHT22;8518;53.236;10.384;2023-12-28T11:14:43;11.30;99.90
16801;DHT22;8518;53.236;10.384;2023-12-28T11:17:10;11.30;99.90
16801;DHT22;8518;53.236;10.384;2023-12-28T11:22:43;11.20;99.90
16801;DHT22;8518;53.236;10.384;2023-12-28T11:28:38;11.60;99.90
16801;DHT22;8518;53.236;10.384;2023-12-28T11:31:04;11.10;99.90
16801;DHT22;8518;53.236;10.384;2023-12-28T11:33:32;11.90;99.90
16801;DHT22;8518;53.236;10.384;2023-12-28T11:35:57;11.20;99.90
16801;DHT22;8518;53.236;10.384;2023-12-28T11:38:23;11.20;99.90
16801;DHT22;8518;53.236;10.384;2023-12-28T11:40:49;11.20;99.90
16801;DHT22;8518;53.236;10.384;2023-12-28T11:43:19;11.10;99.90
16801;DHT22;8518;53.236;10.384;2023-12-28T11:45:51;11.20;99.90
16801;DHT22;8518;53.236;10.384;2023-12-28T11:51:20;11.20;99.90
16801;DHT22;8518;53.236;10.384;2023-12-28T11:56:48;11.30;99.90
16801;DHT22;8518;53.236;10.384;2023-12-28T12:02:17;11.30;99.90
16801;DHT22;8518;53.236;10.384;2023-12-28T12:04:46;11.50;99.90
16801;DHT22;8518;53.236;10.384;2023-12-28T12:07:12;11.40;99.90
16801;DHT22;8518;53.236;10.384;2023-12-28T12:12:40;11.40;99.90
16801;DHT22;8518;53.236;10.384;2023-12-28T12:15:09;10.70;99.90
16801;DHT22;8518;53.236;10.384;2023-12-28T12:17:35;11.30;99.90
16801;DHT22;8518;53.236;10.384;2023-12-28T12:20:00;11.30;99.90
16801;DHT22;8518;53.236;10.384;2023-12-28T12:22:29;11.40;99.90
16801;DHT22;8518;53.236;10.384;2023-12-28T12:24:54;11.40;99.90
16801;DHT22;8518;53.236;10.384;2023-12-28T12:27:21;11.30;99.90
16801;DHT22;8518;53.236;10.384;2023-12-28T12:29:51;11.30;99.90
16801;DHT22;8518;53.236;10.384;2023-12-28T12:32:19;12.20;99.90
16801;DHT22;8518;53.236;10.384;2023-12-28T12:34:45;11.20;99.90
16801;DHT22;8518;53.236;10.384;2023-12-28T12:37:11;11.20;99.90
16801;DHT22;8518;53.236;10.384;2023-12-28T12:39:40;11.20;99.90
16801;DHT22;8518;53.236;10.384;2023-12-28T12:42:06;11.20;99.90
16801;DHT22;8518;53.236;10.384;2023-12-28T12:44:32;11.20;99.90
16801;DHT22;8518;53.236;10.384;2023-12-28T12:46:58;11.20;99.90
16801;DHT22;8518;53.236;10.384;2023-12-28T12:52:27;11.20;99.90
16801;DHT22;8518;53.236;10.384;2023-12-28T12:54:54;11.10;99.90
16801;DHT22;8518;53.236;10.384;2023-12-28T12:57:20;11.10;99.90
16801;DHT22;8518;53.236;10.384;2023-12-28T13:02:51;11.10;99.90
16801;DHT22;8518;53.236;10.384;2023-12-28T13:05:18;11.10;99.90
16801;DHT22;8518;53.236;10.384;2023-12-28T13:10:47;11.10;99.90
16801;DHT22;8518;53.236;10.384;2023-12-28T13:16:15;11.00;99.90
16801;DHT22;8518;53.236;10.384;2023-12-28T13:21:44;11.00;99.90
16801;DHT22;8518;53.236;10.384;2023-12-28T13:24:09;11.00;99.90
16801;DHT22;8518;53.236;10.384;2023-12-28T13:26:35;11.00;99.90
16801;DHT22;8518;53.236;10.384;2023-12-28T13:32:03;11.00;99.90
16801;DHT22;8518;53.236;10.384;2023-12-28T13:34:29;11.00;99.90
16801;DHT22;8518;53.236;10.384;2023-12-28T13:36:54;11.00;99.90
16801;DHT22;8518;53.236;10.384;2023-12-28T13:39:20;11.00;99.90
16801;DHT22;8518;53.236;10.384;2023-12-28T13:41:45;11.00;99.90
16801;DHT22;8518;53.236;10.384;2023-12-28T13:44:11;10.90;99.90
16801;DHT22;8518;53.236;10.384;2023-12-28T13:46:40;10.90;99.90
16801;DHT22;8518;53.236;10.384;2023-12-28T13:52:09;10.80;99.90
16801;DHT22;8518;53.236;10.384;2023-12-28T13:54:35;10.80;99.90
16801;DHT22;8518;53.236;10.384;2023-12-28T13:57:00;10.80;99.90
16801;DHT22;8518;53.236;10.384;2023-12-28T14:02:31;10.80;99.90
16801;DHT22;8518;53.236;10.384;2023-12-28T14:08:01;10.70;99.90
16801;DHT22;8518;53.236;10.384;2023-12-28T14:10:29;10.70;99.90
16801;DHT22;8518;53.236;10.384;2023-12-28T14:12:54;10.60;99.90
16801;DHT22;8518;53.236;10.384;2023-12-28T14:15:20;10.70;99.90
16801;DHT22;8518;53.236;10.384;2023-12-28T14:20:48;10.70;99.90
16801;DHT22;8518;53.236;10.384;2023-12-28T14:23:14;10.60;99.90
16801;DHT22;8518;53.236;10.384;2023-12-28T14:25:40;10.70;99.90
16801;DHT22;8518;53.236;10.384;2023-12-28T14:31:09;10.60;99.90
16801;DHT22;8518;53.236;10.384;2023-12-28T14:33:35;10.60;99.90
16801;DHT22;8518;53.236;10.384;2023-12-28T14:36:01;10.60;99.90
16801;DHT22;8518;53.236;10.384;2023-12-28T14:38:28;10.60;99.90
16801;DHT22;8518;53.236;10.384;2023-12-28T14:40:53;11.70;99.90
16801;DHT22;8518;53.236;10.384;2023-12-28T14:43:19;10.50;99.90
16801;DHT22;8518;53.236;10.384;2023-12-28T14:45:44;10.60;99.90
16801;DHT22;8518;53.236;10.384;2023-12-28T14:51:22;10.60;99.90
16801;DHT22;8518;53.236;10.384;2023-12-28T14:53:48;10.50;99.90
16801;DHT22;8518;53.236;10.384;2023-12-28T14:56:14;10.30;99.90
16801;DHT22;8518;53.236;10.384;2023-12-28T15:01:42;10.50;99.90
16801;DHT22;8518;53.236;10.384;2023-12-28T15:07:11;10.50;99.90
16801;DHT22;8518;53.236;10.384;2023-12-28T15:12:40;10.50;99.90
16801;DHT22;8518;53.236;10.384;2023-12-28T15:15:08;10.50;99.90
16801;DHT22;8518;53.236;10.384;2023-12-28T15:17:35;10.50;99.90
16801;DHT22;8518;53.236;10.384;2023-12-28T15:20:01;10.50;99.90
16801;DHT22;8518;53.236;10.384;2023-12-28T15:22:27;10.50;99.90
16801;DHT22;8518;53.236;10.384;2023-12-28T15:24:52;10.50;99.90
16801;DHT22;8518;53.236;10.384;2023-12-28T15:27:18;10.50;99.90
16801;DHT22;8518;53.236;10.384;2023-12-28T15:32:46;10.50;99.90
16801;DHT22;8518;53.236;10.384;2023-12-28T15:35:12;10.50;99.90
16801;DHT22;8518;53.236;10.384;2023-12-28T15:37:38;10.60;99.90
16801;DHT22;8518;53.236;10.384;2023-12-28T15:40:04;10.50;99.90
16801;DHT22;8518;53.236;10.384;2023-12-28T15:42:30;10.50;99.90
16801;DHT22;8518;53.236;10.384;2023-12-28T15:44:55;10.50;99.90
16801;DHT22;8518;53.236;10.384;2023-12-28T15:47:21;10.50;99.90
16801;DHT22;8518;53.236;10.384;2023-12-28T15:49:46;10.50;99.90
16801;DHT22;8518;53.236;10.384;2023-12-28T15:52:12;10.50;99.90
16801;DHT22;8518;53.236;10.384;2023-12-28T15:54:37;10.40;99.90
16801;DHT22;8518;53.236;10.384;2023-12-28T15:57:03;12.10;99.90
16801;DHT22;8518;53.236;10.384;2023-12-28T16:02:32;10.50;99.90
16801;DHT22;8518;53.236;10.384;2023-12-28T16:05:00;10.50;99.90
16801;DHT22;8518;53.236;10.384;2023-12-28T16:07:29;11.00;99.90
16801;DHT22;8518;53.236;10.384;2023-12-28T16:09:55;10.50;99.90
16801;DHT22;8518;53.236;10.384;2023-12-28T16:12:20;10.50;99.90
16801;DHT22;8518;53.236;10.384;2023-12-28T16:14:46;10.50;99.90
16801;DHT22;8518;53.236;10.384;2023-12-28T16:17:12;10.50;99.90
16801;DHT22;8518;53.236;10.384;2023-12-28T16:22:41;10.50;99.90
16801;DHT22;8518;53.236;10.384;2023-12-28T16:28:10;10.60;99.90
16801;DHT22;8518;53.236;10.384;2023-12-28T16:30:36;10.50;99.90
16801;DHT22;8518;53.236;10.384;2023-12-28T16:33:04;11.60;99.90
16801;DHT22;8518;53.236;10.384;2023-12-28T16:35:29;10.50;99.90
16801;DHT22;8518;53.236;10.384;2023-12-28T16:37:55;10.50;99.90
16801;DHT22;8518;53.236;10.384;2023-12-28T16:40:22;10.50;99.90
16801;DHT22;8518;53.236;10.384;2023-12-28T16:42:48;10.40;99.90
16801;DHT22;8518;53.236;10.384;2023-12-28T16:45:13;11.60;99.90
16801;DHT22;8518;53.236;10.384;2023-12-28T16:50:42;10.50;99.90
16801;DHT22;8518;53.236;10.384;2023-12-28T16:53:08;10.90;99.90
16801;DHT22;8518;53.236;10.384;2023-12-28T16:55:33;11.60;99.90
16801;DHT22;8518;53.236;10.384;2023-12-28T17:01:06;10.40;99.90
16801;DHT22;8518;53.236;10.384;2023-12-28T17:03:33;10.50;99.90
16801;DHT22;8518;53.236;10.384;2023-12-28T17:06:03;10.50;99.90
16801;DHT22;8518;53.236;10.384;2023-12-28T17:11:35;10.40;99.90
16801;DHT22;8518;53.236;10.384;2023-12-28T17:17:10;10.30;99.90
16801;DHT22;8518;53.236;10.384;2023-12-28T17:22:41;10.50;99.90
16801;DHT22;8518;53.236;10.384;2023-12-28T17:31:10;10.50;99.90
16801;DHT22;8518;53.236;10.384;2023-12-28T17:33:39;11.20;99.90
16801;DHT22;8518;53.236;10.384;2023-12-28T17:36:05;10.50;99.90
16801;DHT22;8518;53.236;10.384;2023-12-28T17:38:30;10.40;99.90
16801;DHT22;8518;53.236;10.384;2023-12-28T17:40:56;10.70;99.90
16801;DHT22;8518;53.236;10.384;2023-12-28T17:43:25;10.50;99.90
16801;DHT22;8518;53.236;10.384;2023-12-28T17:51:46;10.40;99.90
16801;DHT22;8518;53.236;10.384;2023-12-28T17:57:20;10.40;99.90
16801;DHT22;8518;53.236;10.384;2023-12-28T18:05:45;10.60;99.90
16801;DHT22;8518;53.236;10.384;2023-12-28T18:11:21;10.50;99.90
16801;DHT22;8518;53.236;10.384;2023-12-28T18:13:46;10.20;99.90
16801;DHT22;8518;53.236;10.384;2023-12-28T18:16:13;9.90;99.90
16801;DHT22;8518;53.236;10.384;2023-12-28T18:21:42;10.40;99.90
16801;DHT22;8518;53.236;10.384;2023-12-28T18:24:08;10.90;99.90
16801;DHT22;8518;53.236;10.384;2023-12-28T18:26:35;9.80;99.90
16801;DHT22;8518;53.236;10.384;2023-12-28T18:32:04;10.40;99.90
16801;DHT22;8518;53.236;10.384;2023-12-28T18:34:30;11.40;99.90
16801;DHT22;8518;53.236;10.384;2023-12-28T18:36:55;10.40;99.90
16801;DHT22;8518;53.236;10.384;2023-12-28T18:42:27;10.40;99.90
16801;DHT22;8518;53.236;10.384;2023-12-28T18:44:53;10.30;99.90
16801;DHT22;8518;53.236;10.384;2023-12-28T18:47:18;10.90;99.90
16801;DHT22;8518;53.236;10.384;2023-12-28T18:52:48;10.30;99.90
16801;DHT22;8518;53.236;10.384;2023-12-28T18:55:13;10.20;99.90
16801;DHT22;8518;53.236;10.384;2023-12-28T19:00:43;10.30;99.90
16801;DHT22;8518;53.236;10.384;2023-12-28T19:03:09;10.30;99.90
16801;DHT22;8518;53.236;10.384;2023-12-28T19:05:34;11.70;99.90
16801;DHT22;8518;53.236;10.384;2023-12-28T19:11:03;10.30;99.90
16801;DHT22;8518;53.236;10.384;2023-12-28T19:13:29;10.30;99.90
16801;DHT22;8518;53.236;10.384;2023-12-28T19:15:55;11.40;99.90
16801;DHT22;8518;53.236;10.384;2023-12-28T19:21:27;10.40;99.90
16801;DHT22;8518;53.236;10.384;2023-12-28T19:23:52;10.10;99.90
16801;DHT22;8518;53.236;10.384;2023-12-28T19:26:18;10.20;99.90
16801;DHT22;8518;53.236;10.384;2023-12-28T19:31:59;10.40;99.90
16801;DHT22;8518;53.236;10.384;2023-12-28T19:34:29;9.20;99.90
16801;DHT22;8518;53.236;10.384;2023-12-28T19:42:37;10.40;99.90
16801;DHT22;8518;53.236;10.384;2023-12-28T19:45:11;10.40;99.90
16801;DHT22;8518;53.236;10.384;2023-12-28T19:47:37;10.50;99.90
16801;DHT22;8518;53.236;10.384;2023-12-28T19:50:05;9.70;99.90
16801;DHT22;8518;53.236;10.384;2023-12-28T19:55:40;9.80;99.90
16801;DHT22;8518;53.236;10.384;2023-12-28T20:01:29;10.20;99.90
16801;DHT22;8518;53.236;10.384;2023-12-28T20:04:10;10.50;99.90
16801;DHT22;8518;53.236;10.384;2023-12-28T20:06:38;10.40;99.90
16801;DHT22;8518;53.236;10.384;2023-12-28T20:12:12;10.50;99.90
16801;DHT22;8518;53.236;10.384;2023-12-28T20:14:44;10.30;99.90
16801;DHT22;8518;53.236;10.384;2023-12-28T20:17:10;10.50;99.90
16801;DHT22;8518;53.236;10.384;2023-12-28T20:22:39;10.60;99.90
16801;DHT22;8518;53.236;10.384;2023-12-28T20:25:04;10.60;99.90
16801;DHT22;8518;53.236;10.384;2023-12-28T20:27:33;10.60;99.90
16801;DHT22;8518;53.236;10.384;2023-12-28T20:30:01;10.50;99.90
16801;DHT22;8518;53.236;10.384;2023-12-28T20:32:35;10.50;99.90
16801;DHT22;8518;53.236;10.384;2023-12-28T20:35:04;10.50;99.90
16801;DHT22;8518;53.236;10.384;2023-12-28T20:40:07;11.70;99.90
16801;DHT22;8518;53.236;10.384;2023-12-28T20:42:35;10.50;99.90
16801;DHT22;8518;53.236;10.384;2023-12-28T20:45:01;10.50;99.90
16801;DHT22;8518;53.236;10.384;2023-12-28T20:47:34;10.50;99.90
16801;DHT22;8518;53.236;10.384;2023-12-28T20:49:59;10.50;99.90
16801;DHT22;8518;53.236;10.384;2023-12-28T20:52:25;11.10;99.90
16801;DHT22;8518;53.236;10.384;2023-12-28T20:54:51;11.60;99.90
16801;DHT22;8518;53.236;10.384;2023-12-28T20:57:16;10.40;99.90
16801;DHT22;8518;53.236;10.384;2023-12-28T21:02:45;10.50;99.90